METAR Data
IDs: Format: Raw Decoded Include TAF

Data at: 0823 UTC 08 May 2021

METAR for:KSPB (Scappoose Ind Airpar, OR, US)
Text:KSPB 080753Z AUTO 32003KT 10SM FEW048 05/02 A3039 RMK AO2 SLP291 T00500022 401610044
Temperature: 5.0°C ( 41°F)
Dewpoint: 2.2°C ( 36°F) [RH = 82%]
Pressure (altimeter):30.39 inches Hg (1029.2 mb) [Sea level pressure: 1029.1 mb]
Winds:from the NW (320 degrees) at 3 MPH (3 knots; 1.5 m/s)
Visibility:10 or more sm (16+ km)
Ceiling:at least 12,000 feet AGL
Clouds: few clouds at 4800 feet AGL
QC Flag:automated observation with no human augmentation